Time;durP1;ratioP1;P1;durP2;ratioP2;P2;SDS_P1;SDS_P2;PMS_P1;PMS_P2;Temp;Humidity;BMP_temperature;BMP_pressure;BME280_temperature;BME280_humidity;BME280_pressure;Samples;Min_cycle;Max_cycle;Signal;HPM_P1;HPM_P2
2022/09/10 00:02:05;;;;;;;9.77;5.88;;;;;;;8.64;70.94;102097.59;10651122;27;20409;-73
2022/09/10 00:07:08;;;;;;;16.02;6.78;;;;;;;8.61;71.52;102087.13;10653508;27;20050;-73
2022/09/10 00:12:10;;;;;;;14.18;6.50;;;;;;;8.53;72.04;102080.09;10653218;27;20039;-73
2022/09/10 00:17:12;;;;;;;14.07;7.00;;;;;;;8.51;71.72;102084.97;10651534;27;20042;-73
2022/09/10 00:22:15;;;;;;;15.55;7.10;;;;;;;8.45;71.85;102072.19;10653544;27;20043;-73
2022/09/10 00:27:17;;;;;;;12.30;6.65;;;;;;;8.40;72.47;102070.16;10652994;27;20038;-73
2022/09/10 00:32:21;;;;;;;13.15;6.47;;;;;;;8.36;72.04;102070.88;10642153;27;20558;-74
2022/09/10 00:37:23;;;;;;;12.77;6.93;;;;;;;8.27;72.49;102075.78;10602411;28;20035;-73
2022/09/10 00:42:25;;;;;;;13.40;6.75;;;;;;;8.25;73.17;102077.91;10611402;28;20125;-73
2022/09/10 00:47:35;;;;;;;15.50;7.25;;;;;;;8.23;72.43;102063.63;10641493;27;20043;-73
2022/09/10 00:52:38;;;;;;;13.20;6.68;;;;;;;8.14;73.14;102062.25;10638759;27;20039;-74
2022/09/10 00:57:40;;;;;;;12.98;7.22;;;;;;;8.09;73.31;102062.97;10650745;27;20051;-73
2022/09/10 01:02:43;;;;;;;18.08;7.97;;;;;;;7.98;73.23;102066.47;10637492;27;20062;-73
2022/09/10 01:07:47;;;;;;;14.48;7.95;;;;;;;7.89;73.96;102080.69;10610601;27;20042;-73
2022/09/10 01:13:10;;;;;;;13.50;6.75;;;;;;;7.81;74.13;102071.72;10633814;27;20042;-73
2022/09/10 01:24:17;;;;;;;12.55;6.25;;;;;;;7.79;74.19;102065.63;10625007;28;20064;-73
2022/09/10 01:29:47;;;;;;;11.38;6.35;;;;;;;7.76;74.59;102062.53;10638126;27;20519;-74
2022/09/10 01:34:56;;;;;;;11.60;7.45;;;;;;;7.76;74.21;102057.91;10615166;27;20413;-73
2022/09/10 01:39:59;;;;;;;9.77;6.45;;;;;;;7.74;73.95;102060.03;10657861;27;20054;-73
2022/09/10 01:45:05;;;;;;;17.27;7.50;;;;;;;7.78;74.38;102054.94;10636986;27;20043;-73
2022/09/10 01:50:18;;;;;;;14.27;6.82;;;;;;;7.74;74.18;102057.28;10639466;27;20058;-73
2022/09/10 01:55:36;;;;;;;17.80;7.30;;;;;;;7.69;74.90;102051.69;10640229;27;20039;-73
2022/09/10 02:00:40;;;;;;;13.98;6.80;;;;;;;7.63;75.07;102046.28;10657865;27;20403;-73
2022/09/10 02:05:44;;;;;;;14.68;7.30;;;;;;;7.61;74.41;102043.78;10656289;27;20051;-73
2022/09/10 02:10:52;;;;;;;12.73;6.70;;;;;;;7.57;74.53;102039.84;10638905;27;20031;-73
2022/09/10 02:15:58;;;;;;;12.68;7.10;;;;;;;7.59;74.75;102037.72;10655818;27;20061;-73
2022/09/10 02:21:06;;;;;;;12.55;6.30;;;;;;;7.55;74.95;102037.34;10642461;27;20039;-73
2022/09/10 02:26:11;;;;;;;11.25;6.22;;;;;;;7.43;75.43;102036.41;10659848;27;20055;-73
2022/09/10 02:31:13;;;;;;;14.68;6.88;;;;;;;7.45;74.90;102028.81;10623560;27;20047;-73
2022/09/10 02:36:15;;;;;;;13.88;6.60;;;;;;;7.41;75.01;102033.06;10653920;27;20538;-73
2022/09/10 02:41:18;;;;;;;13.52;6.75;;;;;;;7.42;75.10;102028.44;10657326;27;20039;-73
2022/09/10 02:46:20;;;;;;;12.32;6.85;;;;;;;7.38;75.33;102028.06;10622838;27;20051;-73
2022/09/10 02:51:23;;;;;;;15.35;7.05;;;;;;;7.33;74.97;102025.19;10655954;27;20047;-73
2022/09/10 02:56:26;;;;;;;16.42;6.90;;;;;;;7.39;75.09;102024.28;10630912;27;20157;-73
2022/09/10 03:01:28;;;;;;;15.88;7.63;;;;;;;7.26;75.74;102019.78;10656207;27;20505;-74
2022/09/10 03:06:37;;;;;;;13.32;6.95;;;;;;;7.21;75.45;102016.06;10623700;27;20039;-73
2022/09/10 03:11:40;;;;;;;12.88;7.18;;;;;;;7.18;75.30;102017.34;10639291;27;20043;-73
2022/09/10 03:16:42;;;;;;;15.70;7.13;;;;;;;7.14;75.64;102016.13;10638539;27;20035;-73
2022/09/10 03:21:46;;;;;;;15.23;7.90;;;;;;;7.18;76.11;102020.06;10657343;27;20038;-73
2022/09/10 03:26:48;;;;;;;15.27;8.82;;;;;;;7.13;76.18;102013.63;10624536;27;20047;-73
2022/09/10 03:31:51;;;;;;;13.55;8.15;;;;;;;7.10;76.36;102025.81;10638061;27;20036;-73
2022/09/10 03:36:55;;;;;;;20.00;8.30;;;;;;;7.03;76.45;102016.03;10636606;27;20050;-73
2022/09/10 03:41:58;;;;;;;16.02;8.18;;;;;;;7.12;75.83;102015.53;10639104;27;20047;-73
2022/09/10 03:47:03;;;;;;;14.23;8.13;;;;;;;7.35;75.82;102012.13;10638418;27;20031;-73
2022/09/10 03:52:06;;;;;;;19.73;8.32;;;;;;;7.56;76.56;102008.94;10629155;27;20047;-73
2022/09/10 03:57:11;;;;;;;15.57;8.40;;;;;;;7.83;75.67;102011.38;10621768;27;20108;-73
2022/09/10 04:02:13;;;;;;;12.82;7.90;;;;;;;8.12;74.85;102009.72;10656841;27;20043;-73
2022/09/10 04:07:15;;;;;;;17.58;8.82;;;;;;;8.35;73.85;102007.13;10638306;27;20051;-73
2022/09/10 04:12:17;;;;;;;12.80;7.95;;;;;;;8.66;72.61;101991.47;10610915;27;20036;-73
2022/09/10 04:17:20;;;;;;;15.93;8.73;;;;;;;8.97;71.87;102001.28;10671440;27;20046;-73
2022/09/10 04:22:23;;;;;;;14.68;7.85;;;;;;;9.25;71.00;101997.84;10655470;27;20031;-74
2022/09/10 04:27:27;;;;;;;15.45;7.55;;;;;;;9.50;68.70;101994.81;10619055;27;20043;-73
2022/09/10 04:32:29;;;;;;;13.23;7.97;;;;;;;9.85;67.36;101989.25;10646713;27;20039;-74
2022/09/10 04:37:32;;;;;;;11.60;7.28;;;;;;;10.14;66.32;101981.88;10634166;27;20051;-73
2022/09/10 04:42:34;;;;;;;14.57;8.75;;;;;;;10.51;65.24;101988.63;10637543;27;20505;-73
2022/09/10 04:47:37;;;;;;;13.68;7.85;;;;;;;10.74;64.55;101989.56;10633259;27;20436;-74
2022/09/10 04:52:40;;;;;;;16.58;8.00;;;;;;;11.18;63.03;101988.63;10652452;27;20047;-74
2022/09/10 04:57:44;;;;;;;11.30;7.78;;;;;;;11.52;62.38;101985.78;10634819;27;20047;-74
2022/09/10 05:02:47;;;;;;;13.57;7.70;;;;;;;11.95;60.74;101989.66;10652235;27;20035;-73
2022/09/10 05:07:51;;;;;;;15.77;7.65;;;;;;;12.25;59.95;101972.66;10616497;28;20509;-73
2022/09/10 05:12:56;;;;;;;11.00;7.68;;;;;;;12.40;58.56;101971.97;10643225;27;20031;-73
2022/09/10 05:18:09;;;;;;;11.95;7.65;;;;;;;12.65;57.92;101974.94;10648237;27;20054;-73
2022/09/10 05:23:13;;;;;;;16.48;8.50;;;;;;;13.08;57.07;101971.16;10644094;27;20532;-73
2022/09/10 05:28:17;;;;;;;12.18;7.00;;;;;;;13.23;56.09;101963.03;10646714;27;20031;-73
2022/09/10 05:33:20;;;;;;;12.38;7.28;;;;;;;13.49;55.42;101958.47;10630348;27;20043;-73
2022/09/10 05:38:23;;;;;;;11.68;7.32;;;;;;;13.86;54.35;101971.28;10647566;27;20043;-73
2022/09/10 05:43:27;;;;;;;14.40;7.80;;;;;;;14.36;53.94;101967.00;10630070;27;20027;-73
2022/09/10 05:48:30;;;;;;;11.85;6.90;;;;;;;14.62;53.25;101954.91;10646557;27;20050;-72
2022/09/10 05:53:33;;;;;;;14.50;7.22;;;;;;;14.65;53.05;101959.06;10566235;28;20043;-72
2022/09/10 05:58:35;;;;;;;11.85;7.40;;;;;;;15.02;52.72;101958.75;10570983;28;20083;-73
2022/09/10 06:03:39;;;;;;;10.65;6.68;;;;;;;15.59;51.09;101957.50;10598858;28;20497;-74
2022/09/10 06:08:42;;;;;;;11.23;7.15;;;;;;;15.75;50.82;101955.50;10587190;28;20050;-73
2022/09/10 06:13:51;;;;;;;12.95;7.07;;;;;;;16.05;49.86;101957.31;10614281;28;21437;-73
2022/09/10 06:18:56;;;;;;;9.57;6.22;;;;;;;16.36;49.60;101956.00;10597491;27;20048;-72
2022/09/10 06:23:58;;;;;;;11.68;6.90;;;;;;;16.64;48.87;101953.53;10574888;28;20508;-73
2022/09/10 06:29:04;;;;;;;10.50;6.05;;;;;;;16.84;48.50;101950.66;10576931;28;20048;-73
2022/09/10 06:34:07;;;;;;;12.43;5.85;;;;;;;17.12;47.98;101954.53;10590283;28;20031;-73
2022/09/10 06:39:10;;;;;;;13.57;6.47;;;;;;;17.43;47.74;101947.53;10586293;28;20040;-73
2022/09/10 06:44:22;;;;;;;13.50;5.72;;;;;;;17.55;47.72;101947.13;10585484;28;20044;-74
2022/09/10 06:49:35;;;;;;;9.70;6.32;;;;;;;17.85;46.96;101948.69;10596690;27;20046;-74
2022/09/10 06:54:38;;;;;;;11.80;6.47;;;;;;;18.16;46.55;101954.63;10638779;27;20493;-74
2022/09/10 06:59:57;;;;;;;7.57;5.43;;;;;;;18.50;45.41;101939.66;10638389;27;20059;-74
2022/09/10 07:05:00;;;;;;;9.63;5.13;;;;;;;18.68;43.99;101938.84;10637269;27;20035;-74
2022/09/10 07:10:06;;;;;;;9.65;5.05;;;;;;;18.68;44.14;101934.09;10624487;27;20053;-73
2022/09/10 07:15:09;;;;;;;10.27;4.68;;;;;;;19.11;42.96;101944.19;10638723;27;20043;-74
2022/09/10 07:20:12;;;;;;;8.13;4.07;;;;;;;19.33;42.13;101938.75;10621930;27;20055;-74
2022/09/10 07:25:23;;;;;;;8.18;4.03;;;;;;;19.63;41.81;101937.34;10625896;27;20046;-74
2022/09/10 07:30:34;;;;;;;6.18;3.80;;;;;;;20.03;39.68;101935.59;10622093;27;20035;-74
2022/09/10 07:35:38;;;;;;;2.90;2.00;;;;;;;20.03;38.57;101934.78;10636840;27;20042;-73
2022/09/10 07:40:42;;;;;;;6.25;3.13;;;;;;;19.94;39.82;101937.47;10637328;27;20563;-74
2022/09/10 07:45:44;;;;;;;6.68;3.60;;;;;;;20.06;40.32;101926.63;10655045;27;20047;-73
2022/09/10 07:50:47;;;;;;;4.93;2.50;;;;;;;20.18;39.00;101929.69;10651555;27;20359;-74
2022/09/10 07:56:00;;;;;;;3.28;2.17;;;;;;;20.12;39.81;101930.09;10603089;27;20035;-74
2022/09/10 08:01:10;;;;;;;3.15;1.98;;;;;;;20.52;38.48;101925.56;10637078;27;20057;-73
2022/09/10 08:06:14;;;;;;;4.55;2.08;;;;;;;20.90;36.96;101927.94;10619970;27;20417;-74
2022/09/10 08:11:17;;;;;;;2.63;2.30;;;;;;;21.01;36.96;101929.31;10634765;27;20062;-73
2022/09/10 08:16:23;;;;;;;7.28;2.10;;;;;;;21.25;36.41;101923.38;10637060;27;20062;-73
2022/09/10 08:21:29;;;;;;;5.77;2.60;;;;;;;21.00;37.62;101924.84;10621496;27;20046;-74
2022/09/10 08:26:33;;;;;;;6.97;2.70;;;;;;;21.43;36.76;101913.09;10625650;27;20047;-74
2022/09/10 08:31:37;;;;;;;2.28;1.80;;;;;;;21.44;36.25;101906.34;10669496;27;20398;-74
2022/09/10 08:36:52;;;;;;;5.22;2.35;;;;;;;21.26;36.02;101911.88;10673091;27;20039;-74
2022/09/10 08:42:25;;;;;;;4.05;2.22;;;;;;;21.25;37.06;101904.66;10653650;27;20537;-74
2022/09/10 08:47:36;;;;;;;4.40;1.38;;;;;;;21.35;36.73;101901.56;10595599;27;20062;-74
2022/09/10 08:53:00;;;;;;;3.42;1.88;;;;;;;21.09;36.28;101908.97;10606294;27;20061;-73
2022/09/10 08:58:12;;;;;;;5.47;2.10;;;;;;;21.23;35.80;101900.50;10643476;27;20412;-74
2022/09/10 09:03:28;;;;;;;2.78;2.03;;;;;;;21.20;35.76;101904.78;10625752;27;20420;-74
2022/09/10 09:08:35;;;;;;;8.45;2.78;;;;;;;20.42;36.02;101898.75;10627106;27;20042;-74
2022/09/10 09:13:59;;;;;;;3.92;2.60;;;;;;;19.79;37.67;101907.19;10651890;28;20505;-74
2022/09/10 09:19:12;;;;;;;4.95;2.72;;;;;;;19.10;38.96;101900.81;10592740;27;20055;-74
2022/09/10 09:24:23;;;;;;;4.95;2.60;;;;;;;18.61;39.40;101899.47;10653421;28;20406;-75
2022/09/10 09:29:34;;;;;;;4.10;2.63;;;;;;;18.28;40.97;101891.09;10616316;27;20043;-76
2022/09/10 09:34:53;;;;;;;7.15;1.80;;;;;;;18.07;40.61;101890.59;10613400;28;20555;-75
2022/09/10 09:40:21;;;;;;;1.92;1.20;;;;;;;17.61;40.71;101884.84;10635134;28;20046;-75
2022/09/10 09:45:37;;;;;;;1.80;1.17;;;;;;;17.27;41.72;101878.63;10629252;27;20046;-76
2022/09/10 09:50:42;;;;;;;2.95;1.20;;;;;;;17.04;42.12;101883.06;10609089;27;20051;-76
2022/09/10 09:55:47;;;;;;;2.15;1.60;;;;;;;16.91;43.02;101881.81;10628565;27;20035;-77
2022/09/10 10:01:12;;;;;;;1.75;1.20;;;;;;;16.77;43.70;101878.06;10642233;27;20552;-77
2022/09/10 10:06:15;;;;;;;3.38;1.30;;;;;;;16.88;43.55;101871.31;10605510;27;20031;-75
2022/09/10 10:11:20;;;;;;;1.50;1.23;;;;;;;16.73;43.46;101868.69;10632801;27;20054;-76
2022/09/10 10:16:34;;;;;;;3.75;1.35;;;;;;;16.70;43.72;101866.50;10642352;27;20055;-76
2022/09/10 10:21:36;;;;;;;2.00;1.25;;;;;;;16.70;43.94;101861.78;10652075;27;20055;-76
2022/09/10 10:26:39;;;;;;;1.85;1.55;;;;;;;16.61;43.48;101851.59;10651359;27;20054;-76
2022/09/10 10:31:44;;;;;;;1.30;1.20;;;;;;;16.54;43.54;101858.31;10663036;27;20046;-76
2022/09/10 10:36:58;;;;;;;1.80;1.40;;;;;;;16.49;44.35;101850.06;10654739;27;20035;-76
2022/09/10 10:42:22;;;;;;;2.20;1.02;;;;;;;16.60;44.17;101848.00;10635733;27;20043;-75
2022/09/10 10:48:09;;;;;;;1.80;1.05;;;;;;;16.47;43.83;101845.91;10645920;27;20035;-74
2022/09/10 10:53:35;;;;;;;1.58;1.23;;;;;;;16.44;44.30;101836.22;10631189;27;20046;-74
2022/09/10 10:58:51;;;;;;;1.83;1.07;;;;;;;16.42;44.62;101835.69;10623918;27;20490;-74
2022/09/10 11:04:21;;;;;;;2.85;1.17;;;;;;;16.34;44.37;101821.66;10640884;27;20054;-74
2022/09/10 11:09:27;;;;;;;1.13;0.90;;;;;;;16.23;44.70;101818.16;10654121;27;20051;-74
2022/09/10 11:14:44;;;;;;;1.35;1.05;;;;;;;16.19;44.93;101814.31;10658650;27;20039;-74
2022/09/10 11:20:04;;;;;;;1.10;0.70;;;;;;;16.17;44.57;101806.28;10639819;27;20051;-74
2022/09/10 11:25:38;;;;;;;1.58;0.82;;;;;;;16.18;45.07;101801.59;10650249;27;20027;-74
2022/09/10 11:30:44;;;;;;;2.85;1.10;;;;;;;16.12;45.11;101788.88;10630099;27;20054;-74
2022/09/10 11:35:59;;;;;;;1.75;1.05;;;;;;;16.14;45.58;101789.41;10639235;27;20039;-74
2022/09/10 11:41:40;;;;;;;1.13;0.98;;;;;;;16.20;45.14;101774.41;10639253;27;20043;-74
2022/09/10 11:46:59;;;;;;;2.05;0.80;;;;;;;16.14;45.06;101778.34;10536200;27;20043;-74
2022/09/10 11:52:02;;;;;;;1.17;0.70;;;;;;;16.15;45.10;101767.00;10638323;27;20052;-74
2022/09/10 11:57:23;;;;;;;1.00;0.70;;;;;;;16.11;45.80;101765.91;10657216;27;20040;-74
2022/09/10 12:02:40;;;;;;;1.52;0.90;;;;;;;16.03;45.28;101754.66;10641790;27;20579;-74
2022/09/10 12:08:01;;;;;;;;;;;;;;;16.06;45.11;101751.28;10620492;27;20049;-74
2022/09/10 12:13:16;;;;;;;1.17;0.90;;;;;;;15.98;45.12;101744.44;10613717;28;19923;-74
2022/09/10 12:18:22;;;;;;;3.30;0.93;;;;;;;16.05;44.95;101741.34;10613386;28;20035;-74
2022/09/10 12:23:28;;;;;;;0.98;0.93;;;;;;;15.96;45.08;101730.88;10614751;27;20047;-74
2022/09/10 12:28:52;;;;;;;0.65;0.65;;;;;;;15.90;45.03;101729.28;10624873;27;20051;-74
2022/09/10 12:33:56;;;;;;;2.72;1.20;;;;;;;15.89;45.25;101726.78;10655353;27;20061;-74
2022/09/10 12:39:20;;;;;;;1.17;0.70;;;;;;;15.90;45.30;101715.44;10649378;27;20043;-74
2022/09/10 12:44:40;;;;;;;0.80;0.68;;;;;;;15.98;45.64;101706.50;10610731;28;20047;-74
2022/09/10 12:50:00;;;;;;;1.83;0.60;;;;;;;16.06;45.27;101704.22;10613016;27;20050;-74
2022/09/10 12:55:28;;;;;;;2.38;0.80;;;;;;;16.08;44.57;101696.44;10654466;27;20031;-74
2022/09/10 13:00:42;;;;;;;1.27;0.70;;;;;;;16.03;45.30;101697.31;10650835;27;20537;-74
2022/09/10 13:05:44;;;;;;;0.90;0.80;;;;;;;16.00;45.41;101689.63;10634428;27;20051;-74
2022/09/10 13:11:06;;;;;;;2.58;0.80;;;;;;;15.98;45.20;101689.06;10649733;27;20049;-74
2022/09/10 13:16:17;;;;;;;1.02;0.80;;;;;;;15.94;45.32;101671.38;10610994;28;20039;-74
2022/09/10 13:21:22;;;;;;;0.52;0.52;;;;;;;15.91;45.65;101675.56;10611097;28;20052;-74
2022/09/10 13:26:36;;;;;;;1.30;0.80;;;;;;;15.83;45.45;101665.13;10625914;28;20054;-74
2022/09/10 13:31:41;;;;;;;1.17;0.90;;;;;;;15.80;45.30;101653.81;10654982;27;20055;-74
2022/09/10 13:37:25;;;;;;;1.10;0.98;;;;;;;15.75;45.18;101648.31;10662623;27;20103;-74
2022/09/10 13:42:52;;;;;;;0.85;0.70;;;;;;;15.74;45.31;101636.44;10577771;27;20059;-74
2022/09/10 13:48:13;;;;;;;1.17;0.93;;;;;;;15.66;45.50;101631.53;10643378;27;20043;-74
2022/09/10 13:53:17;;;;;;;0.80;0.80;;;;;;;15.62;45.55;101634.06;10643710;27;20050;-73
2022/09/10 13:58:27;;;;;;;0.70;0.70;;;;;;;15.63;45.37;101626.59;10661221;27;20043;-74
2022/09/10 14:03:32;;;;;;;2.38;1.13;;;;;;;15.61;45.61;101620.50;10662017;27;20043;-74
2022/09/10 14:08:44;;;;;;;1.42;0.90;;;;;;;15.61;45.69;101612.19;10660125;27;20058;-74
2022/09/10 14:13:54;;;;;;;1.35;0.70;;;;;;;15.53;45.37;101599.81;10642653;27;20041;-74
2022/09/10 14:19:00;;;;;;;2.42;1.00;;;;;;;15.50;45.42;101603.16;10642665;27;20411;-74
2022/09/10 14:24:25;;;;;;;2.88;1.20;;;;;;;15.50;45.51;101605.09;10660517;27;20040;-74
2022/09/10 14:29:28;;;;;;;1.00;0.80;;;;;;;15.45;45.59;101596.84;10625431;27;20126;-74
2022/09/10 14:34:32;;;;;;;2.25;0.82;;;;;;;15.44;45.85;101595.19;10626360;27;20039;-74
2022/09/10 14:39:34;;;;;;;0.80;0.80;;;;;;;15.44;45.76;101584.13;10616782;28;20058;-74
2022/09/10 14:44:41;;;;;;;1.17;0.90;;;;;;;15.44;45.60;101587.69;10628305;27;20043;-74
2022/09/10 14:49:45;;;;;;;1.30;1.20;;;;;;;15.45;45.66;101589.38;10659457;27;20050;-74
2022/09/10 14:54:48;;;;;;;2.33;0.95;;;;;;;15.39;46.00;101594.09;10659728;27;20070;-74
2022/09/10 14:59:50;;;;;;;1.40;1.27;;;;;;;15.38;46.32;101584.16;10659327;27;20039;-74
2022/09/10 15:04:53;;;;;;;2.50;1.15;;;;;;;15.36;45.85;101580.88;10658867;27;20042;-74
2022/09/10 15:09:55;;;;;;;2.40;1.25;;;;;;;15.35;46.51;101573.69;10629071;27;20047;-74
2022/09/10 15:14:57;;;;;;;1.80;1.00;;;;;;;15.36;45.81;101580.03;10615322;28;20129;-74
2022/09/10 15:20:01;;;;;;;1.10;0.90;;;;;;;15.38;45.85;101573.09;10627502;27;20047;-74
2022/09/10 15:25:04;;;;;;;3.17;1.00;;;;;;;15.35;46.22;101578.41;10658539;27;20515;-74
2022/09/10 15:30:07;;;;;;;2.65;1.33;;;;;;;15.32;46.17;101567.91;10653387;27;20404;-74
2022/09/10 15:35:09;;;;;;;3.00;1.70;;;;;;;15.26;46.34;101571.81;10657821;27;20039;-74
2022/09/10 15:40:12;;;;;;;3.13;1.83;;;;;;;15.17;47.06;101577.16;10638947;27;20429;-74
2022/09/10 15:45:14;;;;;;;1.83;1.50;;;;;;;15.08;47.72;101573.34;10629757;27;20043;-73
2022/09/10 15:50:16;;;;;;;2.28;1.70;;;;;;;14.95;47.94;101574.84;10622056;27;20043;-74
2022/09/10 15:55:19;;;;;;;3.58;1.55;;;;;;;14.86;48.11;101568.28;10656472;27;20039;-73
2022/09/10 16:00:22;;;;;;;3.10;1.92;;;;;;;14.76;48.60;101574.72;10639006;27;20053;-73
2022/09/10 16:05:27;;;;;;;2.38;1.58;;;;;;;14.68;49.48;101578.06;10656789;27;20043;-74
2022/09/10 16:10:31;;;;;;;6.45;2.03;;;;;;;14.61;49.36;101576.75;10639950;27;20043;-73
2022/09/10 16:15:34;;;;;;;3.92;2.30;;;;;;;14.56;49.50;101571.22;10647939;27;20532;-73
2022/09/10 16:20:36;;;;;;;4.18;2.25;;;;;;;14.47;50.25;101576.53;10655730;27;20055;-73
2022/09/10 16:25:39;;;;;;;6.72;2.90;;;;;;;14.40;49.68;101570.44;10655537;27;20058;-73
2022/09/10 16:30:41;;;;;;;3.85;2.67;;;;;;;14.31;50.13;101569.41;10653806;27;20042;-73
2022/09/10 16:35:46;;;;;;;4.55;2.92;;;;;;;14.23;51.08;101569.97;10654484;27;20497;-73
2022/09/10 16:40:58;;;;;;;7.07;3.20;;;;;;;14.14;51.22;101567.00;10655094;27;20045;-73
2022/09/10 16:46:02;;;;;;;5.22;3.00;;;;;;;14.04;51.57;101578.06;10632784;27;20409;-74
2022/09/10 16:51:28;;;;;;;3.92;2.40;;;;;;;13.91;52.11;101574.00;10641029;27;20047;-73
2022/09/10 16:56:39;;;;;;;3.58;2.45;;;;;;;13.84;52.25;101567.91;10654979;27;20043;-73
2022/09/10 17:01:43;;;;;;;4.38;2.60;;;;;;;13.74;52.67;101565.22;10654265;27;20062;-74
2022/09/10 17:06:45;;;;;;;6.65;2.58;;;;;;;13.65;53.40;101575.16;10653953;27;20561;-74
2022/09/10 17:11:47;;;;;;;5.40;2.92;;;;;;;13.54;53.80;101580.69;10653948;27;20047;-74
2022/09/10 17:16:51;;;;;;;5.65;2.83;;;;;;;13.50;53.80;101573.22;10653804;28;20163;-73
2022/09/10 17:21:54;;;;;;;7.28;3.22;;;;;;;13.44;53.80;101571.59;10618403;28;20061;-73
2022/09/10 17:26:56;;;;;;;12.32;4.00;;;;;;;13.40;53.75;101574.09;10651991;28;20483;-74
2022/09/10 17:31:58;;;;;;;12.43;3.58;;;;;;;13.38;54.54;101572.72;10650589;28;20047;-77
2022/09/10 17:37:01;;;;;;;13.27;5.28;;;;;;;13.31;54.25;101561.13;10653606;28;20039;-75
2022/09/10 17:42:03;;;;;;;9.85;5.20;;;;;;;13.23;54.91;101562.53;10653590;28;20047;-73
2022/09/10 17:47:05;;;;;;;14.45;5.70;;;;;;;13.18;55.36;101568.00;10635349;28;20039;-75
2022/09/10 17:52:13;;;;;;;12.73;5.10;;;;;;;13.15;55.46;101563.03;10652939;28;20047;-76
2022/09/10 17:57:16;;;;;;;10.32;5.15;;;;;;;13.06;55.69;101567.44;10653454;28;20059;-75
2022/09/10 18:02:18;;;;;;;8.63;5.50;;;;;;;12.94;56.22;101564.97;10653110;28;20058;-75
2022/09/10 18:07:21;;;;;;;9.45;5.63;;;;;;;12.78;57.27;101566.88;10653121;28;20035;-75
2022/09/10 18:12:23;;;;;;;10.38;5.78;;;;;;;12.65;57.59;101561.88;10648194;28;20035;-75
2022/09/10 18:17:28;;;;;;;11.95;5.63;;;;;;;12.55;57.61;101565.44;10635857;27;20065;-75
2022/09/10 18:22:31;;;;;;;10.80;5.47;;;;;;;12.44;59.02;101560.19;10660351;27;20051;-75
2022/09/10 18:27:34;;;;;;;10.88;5.53;;;;;;;12.32;59.14;101568.66;10637834;27;20062;-75
2022/09/10 18:32:36;;;;;;;10.95;5.95;;;;;;;12.23;59.12;101559.28;10660291;27;20035;-75
2022/09/10 18:37:38;;;;;;;11.10;5.50;;;;;;;12.15;59.16;101552.41;10660511;27;20048;-75
2022/09/10 18:42:40;;;;;;;9.00;5.10;;;;;;;12.06;60.29;101548.50;10659515;27;20051;-75
2022/09/10 18:47:46;;;;;;;7.72;4.30;;;;;;;11.97;60.74;101545.41;10641144;27;20039;-75
2022/09/10 18:52:52;;;;;;;12.52;5.03;;;;;;;11.91;61.13;101545.69;10641813;27;20063;-75
2022/09/10 18:57:55;;;;;;;9.55;5.25;;;;;;;11.83;61.63;101543.44;10659153;27;20055;-75
2022/09/10 19:02:57;;;;;;;12.07;5.35;;;;;;;11.76;62.01;101552.72;10633169;27;20059;-75
2022/09/10 19:08:00;;;;;;;13.02;5.65;;;;;;;11.70;61.94;101550.22;10632949;27;20042;-75
2022/09/10 19:13:02;;;;;;;10.40;5.82;;;;;;;11.59;62.52;101552.06;10658653;27;20035;-75
2022/09/10 19:18:05;;;;;;;12.88;5.50;;;;;;;11.48;62.99;101544.88;10658415;27;20493;-75
2022/09/10 19:23:08;;;;;;;10.52;6.10;;;;;;;11.40;63.45;101550.84;10652776;27;20437;-75
2022/09/10 19:28:10;;;;;;;8.18;5.25;;;;;;;11.33;63.51;101553.00;10658474;27;20522;-75
2022/09/10 19:33:15;;;;;;;8.82;5.00;;;;;;;11.26;63.58;101552.38;10639135;27;20497;-75
2022/09/10 19:38:17;;;;;;;10.00;5.47;;;;;;;11.23;63.42;101561.16;10639901;27;20050;-74
2022/09/10 19:43:22;;;;;;;8.88;5.05;;;;;;;11.15;63.39;101549.59;10657481;27;20055;-75
2022/09/10 19:48:24;;;;;;;10.80;5.55;;;;;;;11.12;63.63;101555.59;10657027;27;20069;-75
2022/09/10 19:53:26;;;;;;;10.98;6.20;;;;;;;11.07;64.47;101555.53;10657184;27;20051;-75
2022/09/10 19:58:28;;;;;;;10.57;5.68;;;;;;;11.01;64.24;101550.28;10650309;27;20039;-75
2022/09/10 20:03:30;;;;;;;14.13;6.75;;;;;;;10.93;64.70;101559.81;10657043;27;20031;-75
2022/09/10 20:08:33;;;;;;;11.70;6.18;;;;;;;10.85;65.00;101546.56;10638399;27;20039;-75
2022/09/10 20:13:36;;;;;;;9.45;5.05;;;;;;;10.80;65.04;101552.03;10656492;27;20043;-75
2022/09/10 20:18:38;;;;;;;9.57;5.93;;;;;;;10.76;65.26;101550.84;10655841;27;20413;-75
2022/09/10 20:23:42;;;;;;;9.25;5.45;;;;;;;10.75;66.44;101550.03;10655498;27;20057;-75
2022/09/10 20:28:50;;;;;;;17.30;6.38;;;;;;;10.70;66.20;101551.91;10655746;27;20520;-74
2022/09/10 20:34:04;;;;;;;11.63;6.00;;;;;;;10.64;66.43;101542.81;10631487;27;20040;-75
2022/09/10 20:39:07;;;;;;;12.77;6.10;;;;;;;10.65;66.88;101554.63;10630622;27;20042;-75
2022/09/10 20:44:12;;;;;;;12.10;6.25;;;;;;;10.61;67.25;101553.47;10647832;27;20043;-75
2022/09/10 20:49:15;;;;;;;11.35;6.30;;;;;;;10.54;67.21;101553.66;10645068;27;20043;-75
2022/09/10 20:54:18;;;;;;;9.63;5.53;;;;;;;10.48;67.45;101551.97;10654703;27;20054;-74
2022/09/10 20:59:20;;;;;;;12.75;6.00;;;;;;;10.44;67.49;101553.59;10654770;27;20069;-74
2022/09/10 21:04:22;;;;;;;11.38;6.35;;;;;;;10.48;68.05;101552.81;10626115;27;20040;-75
2022/09/10 21:09:24;;;;;;;12.82;6.85;;;;;;;10.46;68.24;101563.22;10641711;27;20051;-75
2022/09/10 21:14:27;;;;;;;10.80;6.65;;;;;;;10.39;68.32;101551.59;10654620;27;20488;-75
2022/09/10 21:19:29;;;;;;;13.30;6.57;;;;;;;10.34;68.02;101557.03;10653323;28;20035;-75
2022/09/10 21:24:31;;;;;;;13.43;7.10;;;;;;;10.32;67.97;101556.47;10654591;28;20509;-75
2022/09/10 21:29:35;;;;;;;11.35;6.63;;;;;;;10.24;67.93;101565.97;10654051;28;20043;-75
2022/09/10 21:34:39;;;;;;;13.48;6.57;;;;;;;10.23;68.26;101566.22;10651119;28;20039;-75
2022/09/10 21:39:42;;;;;;;14.35;6.45;;;;;;;10.17;69.32;101564.47;10611409;28;20063;-74
2022/09/10 21:44:45;;;;;;;11.50;6.32;;;;;;;10.17;68.34;101569.97;10652492;28;20047;-75
2022/09/10 21:49:47;;;;;;;12.38;6.65;;;;;;;10.14;68.81;101574.03;10653680;28;20059;-74
2022/09/10 21:54:49;;;;;;;12.85;6.88;;;;;;;10.16;69.14;101568.31;10658370;27;20043;-74
2022/09/10 21:59:52;;;;;;;17.13;7.10;;;;;;;10.11;69.42;101569.06;10643495;27;20038;-75
2022/09/10 22:04:54;;;;;;;14.68;7.75;;;;;;;10.11;69.29;101571.00;10660352;27;20023;-75
2022/09/10 22:09:56;;;;;;;14.27;7.35;;;;;;;10.09;69.10;101570.41;10658702;27;20412;-75
2022/09/10 22:14:58;;;;;;;13.10;6.75;;;;;;;10.09;69.80;101567.69;10660333;27;20050;-75
2022/09/10 22:20:01;;;;;;;12.45;6.78;;;;;;;10.10;69.22;101569.34;10660596;27;20058;-74
2022/09/10 22:25:04;;;;;;;15.88;7.75;;;;;;;10.07;69.45;101564.38;10660652;27;20409;-75
2022/09/10 22:30:06;;;;;;;13.73;7.30;;;;;;;10.03;69.05;101555.78;10659337;27;20043;-75
2022/09/10 22:35:09;;;;;;;13.10;7.35;;;;;;;9.99;69.72;101557.41;10661865;27;20043;-75
2022/09/10 22:40:11;;;;;;;13.68;7.15;;;;;;;9.94;69.96;101554.59;10661919;27;20035;-75
2022/09/10 22:45:13;;;;;;;13.65;7.03;;;;;;;9.90;69.71;101542.50;10660023;27;20046;-75
2022/09/10 22:50:15;;;;;;;15.45;6.88;;;;;;;9.85;70.22;101540.50;10639518;27;20039;-75
2022/09/10 22:55:18;;;;;;;14.68;6.97;;;;;;;9.80;69.83;101545.91;10658179;27;20035;-75
2022/09/10 23:00:21;;;;;;;10.90;6.85;;;;;;;9.72;70.36;101535.41;10658974;27;20038;-75
2022/09/10 23:05:23;;;;;;;14.15;7.78;;;;;;;9.72;70.56;101535.41;10656889;27;20500;-75
2022/09/10 23:10:25;;;;;;;12.77;6.82;;;;;;;9.64;70.76;101533.91;10658756;27;20042;-74
2022/09/10 23:15:31;;;;;;;12.38;6.60;;;;;;;9.59;70.59;101528.38;10657987;27;20051;-74
2022/09/10 23:20:33;;;;;;;15.23;7.63;;;;;;;9.57;71.31;101524.22;10657930;27;20055;-75
2022/09/10 23:25:36;;;;;;;13.20;7.10;;;;;;;9.51;71.18;101517.81;10645562;27;20043;-75
2022/09/10 23:30:38;;;;;;;18.80;8.05;;;;;;;9.45;71.64;101518.03;10658195;27;20043;-75